createdAt,value
2023-05-19T00:02:10.375Z,102211.03
2023-05-19T00:04:38.057Z,102212.75
2023-05-19T00:07:05.996Z,102209.31
2023-05-19T00:09:33.310Z,102211.09
2023-05-19T00:12:01.003Z,102204.91
2023-05-19T00:14:29.443Z,102209.31
2023-05-19T00:16:58.383Z,102205.88
2023-05-19T00:19:25.775Z,102212.97
2023-05-19T00:21:52.834Z,102205.88
2023-05-19T00:24:19.953Z,102220.09
2023-05-19T00:26:46.932Z,102221.97
2023-05-19T00:29:18.811Z,102221.19
2023-05-19T00:31:45.830Z,102230.00
2023-05-19T00:34:12.870Z,102235.31
2023-05-19T00:36:39.887Z,102235.38
2023-05-19T00:39:06.996Z,102231.00
2023-05-19T00:41:34.083Z,102229.16
2023-05-19T00:44:01.194Z,102213.25
2023-05-19T00:46:28.753Z,102205.34
2023-05-19T00:48:55.832Z,102216.00
2023-05-19T00:51:24.677Z,102210.72
2023-05-19T00:53:52.509Z,102219.56
2023-05-19T00:56:20.384Z,102212.50
2023-05-19T00:58:47.634Z,102232.06
2023-05-19T01:01:17.475Z,102232.06
2023-05-19T01:03:45.224Z,102240.84
2023-05-19T01:06:12.517Z,102231.13
2023-05-19T01:08:45.943Z,102228.47
2023-05-19T01:11:12.981Z,102227.63
2023-05-19T01:13:41.911Z,102232.06
2023-05-19T01:16:37.866Z,102232.06
2023-05-19T01:19:51.428Z,102228.63
2023-05-19T01:22:36.745Z,102227.69
2023-05-19T01:25:22.087Z,102223.31
2023-05-19T01:28:26.505Z,102231.19
2023-05-19T01:30:55.967Z,102229.41
2023-05-19T01:33:24.176Z,102222.34
2023-05-19T01:35:52.183Z,102227.69
2023-05-19T01:38:21.303Z,102231.19
2023-05-19T01:40:49.888Z,102232.13
2023-05-19T01:43:22.665Z,102241.06
2023-05-19T01:45:51.277Z,102246.28
2023-05-19T01:48:18.875Z,102250.72
2023-05-19T01:50:46.271Z,102249.03
2023-05-19T01:53:13.459Z,102244.56
2023-05-19T01:55:49.921Z,102243.72
2023-05-19T01:58:45.841Z,102237.53
2023-05-19T02:01:34.488Z,102244.63
2023-05-19T02:04:25.168Z,102253.47
2023-05-19T02:06:52.104Z,102250.88
2023-05-19T02:09:26.159Z,102256.19
2023-05-19T02:12:00.730Z,102259.84
2023-05-19T02:14:35.863Z,102264.25
2023-05-19T02:17:05.292Z,102265.97
2023-05-19T02:19:37.643Z,102260.66
2023-05-19T02:22:05.023Z,102260.66
2023-05-19T02:24:32.187Z,102260.72
2023-05-19T02:26:59.149Z,102260.78
2023-05-19T02:29:26.274Z,102259.84
2023-05-19T02:31:53.272Z,102273.09
2023-05-19T02:34:20.316Z,102274.88
2023-05-19T02:36:50.151Z,102278.44
2023-05-19T02:39:17.262Z,102270.56
2023-05-19T02:41:44.200Z,102279.31
2023-05-19T02:44:11.168Z,102279.31
2023-05-19T02:46:38.205Z,102280.19
2023-05-19T02:49:05.239Z,102282.06
2023-05-19T02:51:32.265Z,102280.19
2023-05-19T02:53:59.323Z,102274.09
2023-05-19T02:56:26.769Z,102272.34
2023-05-19T02:58:53.840Z,102264.44
2023-05-19T03:01:23.409Z,102273.22
2023-05-19T03:03:50.609Z,102282.06
2023-05-19T03:06:18.387Z,102278.44
2023-05-19T03:08:45.563Z,102276.75
2023-05-19T03:11:12.550Z,102281.19
2023-05-19T03:13:39.538Z,102278.44
2023-05-19T03:16:08.486Z,102276.75
2023-05-19T03:18:35.748Z,102273.13
2023-05-19T03:21:02.745Z,102274.09
2023-05-19T03:23:29.903Z,102273.22
2023-05-19T03:25:56.955Z,102268.75
2023-05-19T03:28:24.193Z,102264.38
2023-05-19T03:30:51.193Z,102266.09
2023-05-19T03:33:18.385Z,102266.09
2023-05-19T03:35:45.656Z,102274.09
2023-05-19T03:38:12.695Z,102269.69
2023-05-19T03:40:39.716Z,102266.09
2023-05-19T03:43:07.660Z,102267.91
2023-05-19T03:45:34.692Z,102275.00
2023-05-19T03:48:01.851Z,102271.50
2023-05-19T03:50:29.546Z,102266.19
2023-05-19T03:52:56.647Z,102272.41
2023-05-19T03:55:24.476Z,102282.16
2023-05-19T03:57:52.921Z,102287.47
2023-05-19T04:00:20.615Z,102287.47
2023-05-19T04:02:47.768Z,102290.13
2023-05-19T04:05:15.127Z,102291.91
2023-05-19T04:07:43.356Z,102296.34
2023-05-19T04:10:10.848Z,102295.44
2023-05-19T04:12:37.811Z,102299.88
2023-05-19T04:15:06.366Z,102302.66
2023-05-19T04:17:33.437Z,102302.63
2023-05-19T04:20:00.456Z,102306.19
2023-05-19T04:22:27.555Z,102309.78
2023-05-19T04:24:55.381Z,102310.72
2023-05-19T04:27:22.548Z,102307.13
2023-05-19T04:29:50.052Z,102309.78
2023-05-19T04:32:19.783Z,102310.72
2023-05-19T04:34:46.945Z,102310.72
2023-05-19T04:37:16.838Z,102314.31
2023-05-19T04:39:45.675Z,102316.91
2023-05-19T04:42:13.463Z,102317.75
2023-05-19T04:44:40.614Z,102316.09
2023-05-19T04:47:09.287Z,102316.97
2023-05-19T04:49:39.594Z,102319.63
2023-05-19T04:52:08.021Z,102317.91
2023-05-19T04:54:35.925Z,102317.91
2023-05-19T04:57:03.385Z,102320.56
2023-05-19T04:59:30.392Z,102320.50
2023-05-19T05:01:57.814Z,102324.88
2023-05-19T05:04:24.953Z,102324.00
2023-05-19T05:06:52.245Z,102330.25
2023-05-19T05:09:20.556Z,102326.72
2023-05-19T05:11:47.909Z,102331.19
2023-05-19T05:14:15.220Z,102330.25
2023-05-19T05:16:42.926Z,102324.06
2023-05-19T05:19:10.294Z,102327.66
2023-05-19T05:21:37.757Z,102325.94
2023-05-19T05:24:05.161Z,102335.69
2023-05-19T05:26:34.200Z,102335.69
2023-05-19T05:29:01.301Z,102331.31
2023-05-19T05:31:28.335Z,102336.56
2023-05-19T05:33:55.575Z,102334.78
2023-05-19T05:36:22.700Z,102333.84
2023-05-19T05:38:49.622Z,102334.78
2023-05-19T05:41:16.644Z,102344.50
2023-05-19T05:43:43.708Z,102342.75
2023-05-19T05:46:11.083Z,102349.81
2023-05-19T05:48:38.554Z,102344.50
2023-05-19T05:51:06.469Z,102341.00
2023-05-19T05:53:37.585Z,102344.59
2023-05-19T05:56:04.644Z,102349.81
2023-05-19T05:58:33.622Z,102354.25
2023-05-19T06:01:02.788Z,102356.03
2023-05-19T06:03:29.794Z,102352.50
2023-05-19T06:05:56.885Z,102356.03
2023-05-19T06:08:23.998Z,102356.13
2023-05-19T06:10:51.039Z,102362.22
2023-05-19T06:13:22.598Z,102358.69
2023-05-19T06:15:49.963Z,102364.00
2023-05-19T06:18:17.340Z,102364.91
2023-05-19T06:20:44.436Z,102362.25
2023-05-19T06:23:11.649Z,102356.94
2023-05-19T06:25:38.778Z,102357.56
2023-05-19T06:28:06.402Z,102358.94
2023-05-19T06:30:33.912Z,102367.34
2023-05-19T06:33:01.174Z,102363.78
2023-05-19T06:35:28.359Z,102359.22
2023-05-19T06:37:56.832Z,102355.59
2023-05-19T06:40:24.062Z,102362.25
2023-05-19T06:42:51.308Z,102366.47
2023-05-19T06:45:22.332Z,102361.78
2023-05-19T06:47:49.594Z,102352.16
2023-05-19T06:50:16.800Z,102359.06
2023-05-19T06:52:44.794Z,102373.56
2023-05-19T06:55:11.845Z,102368.84
2023-05-19T06:57:39.156Z,102370.31
2023-05-19T07:00:10.038Z,102377.97
2023-05-19T07:02:37.255Z,102387.50
2023-05-19T07:05:04.766Z,102382.91
2023-05-19T07:07:31.944Z,102393.09
2023-05-19T07:09:59.092Z,102395.47
2023-05-19T07:12:27.082Z,102386.56
2023-05-19T07:14:54.286Z,102386.38
2023-05-19T07:17:24.281Z,102388.03
2023-05-19T07:19:51.587Z,102385.09
2023-05-19T07:22:18.836Z,102388.38
2023-05-19T07:24:46.060Z,102394.41
2023-05-19T07:27:13.100Z,102397.06
2023-05-19T07:29:40.170Z,102400.69
2023-05-19T07:32:07.635Z,102406.72
2023-05-19T07:34:34.949Z,102396.94
2023-05-19T07:37:02.679Z,102404.78
2023-05-19T07:39:30.073Z,102409.13
2023-05-19T07:41:57.555Z,102406.25
2023-05-19T07:44:24.671Z,102408.50
2023-05-19T07:46:52.033Z,102403.22
2023-05-19T07:49:19.409Z,102404.88
2023-05-19T07:51:46.837Z,102410.75
2023-05-19T07:54:14.011Z,102407.25
2023-05-19T07:56:41.788Z,102399.97
2023-05-19T07:59:09.110Z,102408.28
2023-05-19T08:01:36.694Z,102406.84
2023-05-19T08:04:04.279Z,102404.53
2023-05-19T08:06:32.246Z,102399.47
2023-05-19T08:08:59.715Z,102405.84
2023-05-19T08:11:27.113Z,102398.78
2023-05-19T08:13:54.308Z,102398.78
2023-05-19T08:16:21.819Z,102402.63
2023-05-19T08:18:49.030Z,102408.88
2023-05-19T08:21:16.201Z,102409.66
2023-05-19T08:23:43.357Z,102402.16
2023-05-19T08:26:10.491Z,102394.72
2023-05-19T08:28:37.741Z,102398.81
2023-05-19T08:31:04.916Z,102402.59
2023-05-19T08:33:32.248Z,102396.00
2023-05-19T08:35:59.481Z,102391.19
2023-05-19T08:38:27.236Z,102393.56
2023-05-19T08:40:55.007Z,102397.19
2023-05-19T08:43:22.515Z,102390.44
2023-05-19T08:45:50.443Z,102386.75
2023-05-19T08:48:19.316Z,102391.31
2023-05-19T08:51:12.712Z,102385.28
2023-05-19T08:53:44.417Z,102371.84
2023-05-19T08:56:15.341Z,102382.22
2023-05-19T08:58:44.389Z,102376.75
2023-05-19T09:01:17.299Z,102374.63
2023-05-19T09:03:46.669Z,102372.63
2023-05-19T09:06:15.122Z,102371.28
2023-05-19T09:08:43.270Z,102375.78
2023-05-19T09:11:11.318Z,102380.09
2023-05-19T09:13:38.886Z,102384.44
2023-05-19T09:16:07.103Z,102380.81
2023-05-19T09:18:34.539Z,102379.94
2023-05-19T09:21:05.328Z,102375.34
2023-05-19T09:23:36.963Z,102383.09
2023-05-19T09:26:08.164Z,102386.88
2023-05-19T09:28:37.268Z,102388.91
2023-05-19T09:31:06.511Z,102395.13
2023-05-19T09:33:35.865Z,102392.63
2023-05-19T09:36:06.043Z,102394.34
2023-05-19T09:38:33.646Z,102395.28
2023-05-19T09:41:01.783Z,102394.34
2023-05-19T09:43:34.021Z,102393.47
2023-05-19T09:46:04.775Z,102401.72
2023-05-19T09:48:31.994Z,102399.97
2023-05-19T09:51:01.691Z,102408.94
2023-05-19T09:53:30.666Z,102411.66
2023-05-19T09:55:58.662Z,102409.06
2023-05-19T09:58:27.356Z,102410.78
2023-05-19T10:00:57.521Z,102412.66
2023-05-19T10:03:26.014Z,102414.56
2023-05-19T10:05:54.152Z,102412.16
2023-05-19T10:08:24.486Z,102412.38
2023-05-19T10:10:52.876Z,102416.19
2023-05-19T10:13:22.207Z,102411.94
2023-05-19T10:18:21.571Z,102420.16
2023-05-19T10:20:50.521Z,102413.19
2023-05-19T10:23:17.746Z,102408.09
2023-05-19T10:25:45.363Z,102417.38
2023-05-19T10:28:17.749Z,102419.16
2023-05-19T10:30:51.303Z,102423.47
2023-05-19T10:33:23.474Z,102423.13
2023-05-19T10:36:09.714Z,102422.34
2023-05-19T10:38:45.420Z,102423.34
2023-05-19T10:41:40.225Z,102425.22
2023-05-19T10:44:23.539Z,102422.91
2023-05-19T10:46:51.699Z,102426.50
2023-05-19T10:49:23.413Z,102416.94
2023-05-19T10:51:52.680Z,102420.44
2023-05-19T10:54:41.207Z,102412.53
2023-05-19T10:57:10.327Z,102415.22
2023-05-19T10:59:39.691Z,102412.63
2023-05-19T11:02:09.717Z,102407.22
2023-05-19T11:04:51.130Z,102408.81
2023-05-19T11:07:21.190Z,102407.06
2023-05-19T11:09:52.940Z,102408.22
2023-05-19T11:12:25.366Z,102408.31
2023-05-19T11:14:56.013Z,102411.03
2023-05-19T11:17:26.095Z,102414.66
2023-05-19T11:19:57.933Z,102407.34
2023-05-19T11:22:28.947Z,102408.09
2023-05-19T11:24:57.839Z,102419.31
2023-05-19T11:27:28.879Z,102406.66
2023-05-19T11:29:57.416Z,102404.63
2023-05-19T11:32:29.709Z,102408.34
2023-05-19T11:34:58.327Z,102410.50
2023-05-19T11:37:25.448Z,102410.44
2023-05-19T11:39:53.756Z,102407.78
2023-05-19T11:42:21.035Z,102413.03
2023-05-19T11:44:48.143Z,102406.81
2023-05-19T11:47:16.564Z,102407.56
2023-05-19T11:49:45.309Z,102404.63
2023-05-19T11:52:12.551Z,102408.06
2023-05-19T11:54:42.207Z,102402.88
2023-05-19T11:57:11.268Z,102400.34
2023-05-19T11:59:41.018Z,102399.28
2023-05-19T12:02:21.848Z,102408.84
2023-05-19T12:04:49.872Z,102405.59
2023-05-19T12:07:19.332Z,102415.06
2023-05-19T12:09:47.740Z,102405.97
2023-05-19T12:12:17.403Z,102410.44
2023-05-19T12:14:46.562Z,102401.38
2023-05-19T12:17:15.222Z,102401.28
2023-05-19T12:19:44.881Z,102396.41
2023-05-19T12:22:12.248Z,102388.31
2023-05-19T12:24:40.540Z,102393.50
2023-05-19T12:27:21.237Z,102394.31
2023-05-19T12:29:53.048Z,102398.63
2023-05-19T12:32:24.497Z,102400.31
2023-05-19T12:34:52.656Z,102402.06
2023-05-19T12:37:20.395Z,102403.56
2023-05-19T12:39:49.374Z,102404.34
2023-05-19T12:42:17.042Z,102402.38
2023-05-19T12:44:50.400Z,102404.91
2023-05-19T12:47:20.482Z,102404.09
2023-05-19T12:49:57.252Z,102389.09
2023-05-19T12:52:24.509Z,102389.81
2023-05-19T12:54:59.371Z,102399.47
2023-05-19T12:57:27.660Z,102399.31
2023-05-19T13:00:01.147Z,102401.09
2023-05-19T13:02:32.396Z,102396.47
2023-05-19T13:05:00.014Z,102399.94
2023-05-19T13:07:27.182Z,102397.41
2023-05-19T13:09:54.772Z,102397.41
2023-05-19T13:12:22.005Z,102399.16
2023-05-19T13:14:49.112Z,102400.59
2023-05-19T13:17:16.481Z,102404.03
2023-05-19T13:19:43.739Z,102401.34
2023-05-19T13:22:10.897Z,102406.63
2023-05-19T13:24:38.120Z,102393.47
2023-05-19T13:27:06.163Z,102402.94
2023-05-19T13:29:33.372Z,102401.34
2023-05-19T13:32:01.449Z,102412.84
2023-05-19T13:34:28.835Z,102411.97
2023-05-19T13:36:55.949Z,102406.53
2023-05-19T13:39:23.108Z,102405.66
2023-05-19T13:41:50.912Z,102397.75
2023-05-19T13:44:17.889Z,102392.63
2023-05-19T13:46:46.519Z,102386.66
2023-05-19T13:49:15.094Z,102397.56
2023-05-19T13:51:44.002Z,102395.88
2023-05-19T13:54:11.856Z,102393.97
2023-05-19T13:56:39.146Z,102391.06
2023-05-19T13:59:06.154Z,102386.44
2023-05-19T14:01:33.579Z,102380.97
2023-05-19T14:04:01.138Z,102389.00
2023-05-19T14:06:28.567Z,102390.03
2023-05-19T14:08:55.634Z,102377.44
2023-05-19T14:11:22.956Z,102385.66
2023-05-19T14:13:53.237Z,102384.63
2023-05-19T14:16:22.345Z,102386.19
2023-05-19T14:18:49.774Z,102383.47
2023-05-19T14:21:17.013Z,102380.63
2023-05-19T14:23:44.248Z,102390.47
2023-05-19T14:26:11.339Z,102396.47
2023-05-19T14:28:38.608Z,102388.00
2023-05-19T14:31:06.704Z,102394.44
2023-05-19T14:33:35.690Z,102384.69
2023-05-19T14:36:03.146Z,102384.47
2023-05-19T14:38:30.334Z,102381.97
2023-05-19T14:40:57.550Z,102386.31
2023-05-19T14:43:24.884Z,102380.22
2023-05-19T14:45:51.995Z,102372.38
2023-05-19T14:48:19.114Z,102375.75
2023-05-19T14:50:48.647Z,102375.47
2023-05-19T14:53:16.651Z,102374.25
2023-05-19T14:55:44.099Z,102379.59
2023-05-19T14:58:26.739Z,102382.03
2023-05-19T15:00:55.206Z,102384.69
2023-05-19T15:03:23.620Z,102384.41
2023-05-19T15:05:51.007Z,102379.78
2023-05-19T15:08:18.076Z,102383.22
2023-05-19T15:10:49.312Z,102384.16
2023-05-19T15:13:19.186Z,102376.06
2023-05-19T15:15:46.470Z,102377.00
2023-05-19T15:18:16.467Z,102377.72
2023-05-19T15:20:44.417Z,102369.44
2023-05-19T15:23:11.551Z,102373.84
2023-05-19T15:25:38.910Z,102377.63
2023-05-19T15:28:06.034Z,102359.03
2023-05-19T15:30:33.587Z,102363.25
2023-05-19T15:33:01.337Z,102364.28
2023-05-19T15:35:28.426Z,102359.78
2023-05-19T15:37:55.477Z,102356.81
2023-05-19T15:40:22.704Z,102360.31
2023-05-19T15:42:49.758Z,102361.59
2023-05-19T15:45:20.262Z,102366.94
2023-05-19T15:47:48.893Z,102362.53
2023-05-19T15:50:16.898Z,102359.25
2023-05-19T15:52:44.403Z,102368.28
2023-05-19T15:55:11.936Z,102361.44
2023-05-19T15:57:39.023Z,102362.19
2023-05-19T16:00:06.867Z,102356.41
2023-05-19T16:02:34.250Z,102365.19
2023-05-19T16:05:01.724Z,102352.81
2023-05-19T16:07:28.921Z,102350.91
2023-05-19T16:09:56.166Z,102355.31
2023-05-19T16:12:24.634Z,102357.03
2023-05-19T16:14:51.721Z,102358.50
2023-05-19T16:17:18.788Z,102353.97
2023-05-19T16:19:46.486Z,102353.16
2023-05-19T16:22:13.819Z,102347.94
2023-05-19T16:24:41.592Z,102350.34
2023-05-19T16:27:08.681Z,102348.44
2023-05-19T16:29:36.108Z,102350.28
2023-05-19T16:32:03.260Z,102349.03
2023-05-19T16:34:30.737Z,102354.53
2023-05-19T16:36:57.973Z,102345.91
2023-05-19T16:39:25.029Z,102351.25
2023-05-19T16:41:53.334Z,102353.41
2023-05-19T16:44:20.421Z,102348.91
2023-05-19T16:46:47.433Z,102340.31
2023-05-19T16:49:14.570Z,102348.91
2023-05-19T16:51:41.619Z,102345.22
2023-05-19T16:54:08.725Z,102337.22
2023-05-19T16:56:35.904Z,102347.19
2023-05-19T16:59:03.036Z,102345.50
2023-05-19T17:01:31.858Z,102341.97
2023-05-19T17:03:59.229Z,102343.63
2023-05-19T17:06:26.493Z,102347.31
2023-05-19T17:08:54.153Z,102344.75
2023-05-19T17:11:21.971Z,102346.59
2023-05-19T17:13:49.156Z,102349.28
2023-05-19T17:16:16.417Z,102340.25
2023-05-19T17:18:44.126Z,102348.28
2023-05-19T17:21:11.347Z,102345.75
2023-05-19T17:23:38.660Z,102344.97
2023-05-19T17:26:05.721Z,102346.84
2023-05-19T17:28:32.957Z,102350.66
2023-05-19T17:30:59.976Z,102354.34
2023-05-19T17:33:27.488Z,102352.69
2023-05-19T17:35:55.715Z,102351.81
2023-05-19T17:38:23.269Z,102351.66
2023-05-19T17:40:50.451Z,102356.28
2023-05-19T17:43:17.965Z,102368.00
2023-05-19T17:45:45.054Z,102361.94
2023-05-19T17:48:12.348Z,102362.91
2023-05-19T17:50:39.430Z,102369.06
2023-05-19T17:53:07.107Z,102369.81
2023-05-19T17:55:34.868Z,102372.78
2023-05-19T17:58:02.240Z,102374.97
2023-05-19T18:00:29.889Z,102369.50
2023-05-19T18:02:57.949Z,102370.28
2023-05-19T18:05:25.500Z,102379.84
2023-05-19T18:07:55.460Z,102381.56
2023-05-19T18:10:23.971Z,102377.34
2023-05-19T18:12:51.011Z,102378.28
2023-05-19T18:15:18.220Z,102376.53
2023-05-19T18:17:45.285Z,102379.31
2023-05-19T18:20:13.100Z,102385.50
2023-05-19T18:22:40.363Z,102385.50
2023-05-19T18:25:07.898Z,102393.28
2023-05-19T18:27:35.197Z,102399.31
2023-05-19T18:30:02.350Z,102399.31
2023-05-19T18:32:29.490Z,102407.38
2023-05-19T18:34:56.924Z,102411.00
2023-05-19T18:37:24.066Z,102408.41
2023-05-19T18:39:51.414Z,102415.81
2023-05-19T18:42:18.733Z,102419.03
2023-05-19T18:44:51.068Z,102421.44
2023-05-19T18:47:23.273Z,102418.34
2023-05-19T18:49:50.697Z,102418.84
2023-05-19T18:52:19.591Z,102438.22
2023-05-19T18:54:47.567Z,102432.81
2023-05-19T18:57:15.567Z,102433.66
2023-05-19T18:59:42.881Z,102440.56
2023-05-19T19:02:10.290Z,102436.03
2023-05-19T19:04:37.917Z,102437.75
2023-05-19T19:07:07.237Z,102438.72
2023-05-19T19:09:36.126Z,102441.13
2023-05-19T19:12:03.902Z,102442.78
2023-05-19T19:14:31.436Z,102449.00
2023-05-19T19:16:58.806Z,102441.84
2023-05-19T19:19:28.838Z,102439.97
2023-05-19T19:21:56.556Z,102448.03
2023-05-19T19:24:24.256Z,102447.88
2023-05-19T19:26:51.624Z,102447.72
2023-05-19T19:29:22.313Z,102445.06
2023-05-19T19:31:49.784Z,102457.53
2023-05-19T19:34:20.239Z,102456.66
2023-05-19T19:36:48.260Z,102467.28
2023-05-19T19:39:15.687Z,102473.41
2023-05-19T19:41:43.056Z,102468.22
2023-05-19T19:44:10.467Z,102472.03
2023-05-19T19:46:37.951Z,102484.56
2023-05-19T19:49:07.015Z,102486.03
2023-05-19T19:51:34.866Z,102488.00
2023-05-19T19:54:02.370Z,102492.34
2023-05-19T19:56:29.641Z,102485.13
2023-05-19T19:58:59.255Z,102485.00
2023-05-19T20:01:28.189Z,102501.41
2023-05-19T20:03:56.531Z,102499.53
2023-05-19T20:06:24.385Z,102502.25
2023-05-19T20:08:51.619Z,102499.72
2023-05-19T20:11:20.634Z,102494.44
2023-05-19T20:13:48.099Z,102488.72
2023-05-19T20:16:15.959Z,102505.47
2023-05-19T20:18:43.967Z,102510.41
2023-05-19T20:21:11.544Z,102517.94
2023-05-19T20:23:41.358Z,102520.94
2023-05-19T20:26:12.765Z,102525.63
2023-05-19T20:28:40.852Z,102534.59
2023-05-19T20:31:08.403Z,102532.94
2023-05-19T20:33:35.961Z,102527.88
2023-05-19T20:36:05.321Z,102532.41
2023-05-19T20:38:32.927Z,102528.94
2023-05-19T20:41:05.078Z,102528.16
2023-05-19T20:43:33.762Z,102522.06
2023-05-19T20:46:04.324Z,102523.06
2023-05-19T20:48:33.464Z,102530.22
2023-05-19T20:51:01.161Z,102537.53
2023-05-19T20:53:28.491Z,102543.78
2023-05-19T20:55:56.608Z,102542.91
2023-05-19T20:58:28.011Z,102536.00
2023-05-19T21:00:58.340Z,102534.25
2023-05-19T21:03:27.432Z,102537.88
2023-05-19T21:05:55.772Z,102539.72
2023-05-19T21:08:27.423Z,102538.03
2023-05-19T21:10:55.340Z,102542.47
2023-05-19T21:13:24.632Z,102548.81
2023-05-19T21:15:54.579Z,102539.94
2023-05-19T21:18:23.693Z,102539.16
2023-05-19T21:20:52.454Z,102548.06
2023-05-19T21:23:19.909Z,102542.88
2023-05-19T21:25:48.155Z,102543.75
2023-05-19T21:28:15.581Z,102544.84
2023-05-19T21:30:47.328Z,102547.50
2023-05-19T21:33:16.973Z,102539.56
2023-05-19T21:35:48.816Z,102551.09
2023-05-19T21:40:50.669Z,102543.31
2023-05-19T21:43:18.048Z,102542.34
2023-05-19T21:45:46.828Z,102547.84
2023-05-19T21:48:16.466Z,102553.22
2023-05-19T21:50:44.224Z,102554.09
2023-05-19T21:53:11.609Z,102562.13
2023-05-19T21:55:39.899Z,102571.09
2023-05-19T21:58:07.582Z,102572.94
2023-05-19T22:00:37.796Z,102568.53
2023-05-19T22:03:05.942Z,102565.97
2023-05-19T22:05:36.000Z,102574.94
2023-05-19T22:08:03.358Z,102573.22
2023-05-19T22:10:30.687Z,102565.22
2023-05-19T22:12:58.407Z,102568.81
2023-05-19T22:15:25.562Z,102570.59
2023-05-19T22:17:53.121Z,102572.41
2023-05-19T22:20:20.516Z,102562.69
2023-05-19T22:22:48.351Z,102563.59
2023-05-19T22:25:16.648Z,102569.00
2023-05-19T22:27:43.945Z,102578.78
2023-05-19T22:30:11.201Z,102580.66
2023-05-19T22:32:38.325Z,102571.88
2023-05-19T22:35:07.022Z,102579.78
2023-05-19T22:37:34.618Z,102579.06
2023-05-19T22:40:01.858Z,102576.34
2023-05-19T22:42:29.115Z,102573.72
2023-05-19T22:44:56.719Z,102561.28
2023-05-19T22:47:24.017Z,102570.16
2023-05-19T22:49:51.928Z,102584.38
2023-05-19T22:52:19.026Z,102580.00
2023-05-19T22:54:46.071Z,102576.53
2023-05-19T22:57:13.239Z,102574.81
2023-05-19T22:59:41.522Z,102565.94
2023-05-19T23:02:08.628Z,102574.00
2023-05-19T23:04:36.420Z,102578.47
2023-05-19T23:07:03.753Z,102574.00
2023-05-19T23:09:31.002Z,102566.94
2023-05-19T23:11:58.230Z,102564.34
2023-05-19T23:14:26.422Z,102560.03
2023-05-19T23:16:53.562Z,102562.63
2023-05-19T23:19:21.035Z,102561.75
2023-05-19T23:21:49.455Z,102561.88
2023-05-19T23:24:16.951Z,102570.78
2023-05-19T23:26:44.613Z,102574.34
2023-05-19T23:29:13.719Z,102567.28
2023-05-19T23:31:44.959Z,102566.44
2023-05-19T23:34:12.049Z,102565.56
2023-05-19T23:36:39.546Z,102568.28
2023-05-19T23:39:06.851Z,102564.78
2023-05-19T23:41:34.111Z,102562.13
2023-05-19T23:44:01.294Z,102567.50
2023-05-19T23:46:28.416Z,102570.09
2023-05-19T23:48:55.535Z,102588.78
2023-05-19T23:51:22.606Z,102587.91
2023-05-19T23:53:49.787Z,102588.88
2023-05-19T23:56:16.805Z,102592.44
2023-05-19T23:58:43.960Z,102593.31
